Arena, Wisconsin
Current Conditions -  °F | °C
As of 8:56 PM on Sunday 21 Dec 2014 (Local Time) from KLNR Reporting Station
Overcast Overcast  
Wind Chill:   Ceiling: 1600
Heat Index:   Visibility: 8mi
Dew Point: -1°   Wind: 9mph
Humidity: 70%   Direction: 160°SSE
Pressure: 29.94"   Gusts: NA
Location:  43.17°N, 89.91°W
Report Text: KLNR 220256Z AUTO 16008KT 8SM OVC016 04/M01 A2994 RMK AO2 SLP138 T00441006 58003
Loading
Personal Weather Stations






























Interactive Weather Map New forecast layout! Learn more

10-Day Weather Forecast

Advertisements
Track Severe Weather on mobile